createdAt,value
2018-05-09T00:00:12.518Z,2.90
2018-05-09T00:02:41.019Z,3.13
2018-05-09T00:05:10.173Z,3.00
2018-05-09T00:07:38.628Z,3.40
2018-05-09T00:10:07.007Z,3.40
2018-05-09T00:12:35.403Z,3.07
2018-05-09T00:15:03.891Z,3.42
2018-05-09T00:17:32.287Z,3.30
2018-05-09T00:20:00.713Z,3.12
2018-05-09T00:22:29.091Z,2.97
2018-05-09T00:24:58.315Z,3.60
2018-05-09T00:27:26.719Z,2.42
2018-05-09T00:29:55.107Z,3.00
2018-05-09T00:32:23.610Z,3.10
2018-05-09T00:34:52.016Z,3.37
2018-05-09T00:37:20.725Z,3.60
2018-05-09T00:39:49.144Z,2.87
2018-05-09T00:42:17.582Z,3.55
2018-05-09T00:44:45.996Z,2.80
2018-05-09T00:47:14.414Z,3.45
2018-05-09T00:49:42.845Z,3.42
2018-05-09T00:52:12.087Z,3.65
2018-05-09T00:54:40.495Z,3.00
2018-05-09T00:57:10.466Z,3.37
2018-05-09T00:59:39.637Z,3.07
2018-05-09T01:02:08.050Z,2.80
2018-05-09T01:04:36.484Z,3.05
2018-05-09T01:07:05.010Z,3.20
2018-05-09T01:09:34.295Z,3.23
2018-05-09T01:12:02.722Z,3.00
2018-05-09T01:14:31.122Z,3.30
2018-05-09T01:16:59.651Z,3.03
2018-05-09T01:19:28.456Z,3.17
2018-05-09T01:21:58.517Z,3.45
2018-05-09T01:24:26.917Z,5.10
2018-05-09T01:26:55.522Z,3.87
2018-05-09T01:29:24.854Z,3.40
2018-05-09T01:31:53.327Z,3.60
2018-05-09T01:34:22.025Z,3.72
2018-05-09T01:36:54.545Z,3.47
2018-05-09T01:39:22.957Z,3.83
2018-05-09T01:41:51.406Z,3.60
2018-05-09T01:44:19.844Z,3.80
2018-05-09T01:46:49.603Z,3.78
2018-05-09T01:49:18.099Z,3.10
2018-05-09T01:51:46.514Z,4.10
2018-05-09T01:54:15.042Z,3.65
2018-05-09T01:56:45.777Z,4.15
2018-05-09T01:59:15.054Z,3.92
2018-05-09T02:01:43.554Z,4.40
2018-05-09T02:04:13.639Z,3.80
2018-05-09T02:06:43.103Z,4.07
2018-05-09T02:09:11.511Z,4.25
2018-05-09T02:11:40.014Z,3.72
2018-05-09T02:14:08.475Z,4.35
2018-05-09T02:16:36.923Z,3.37
2018-05-09T02:19:06.247Z,4.10
2018-05-09T02:21:35.024Z,3.55
2018-05-09T02:24:03.798Z,4.45
2018-05-09T02:26:32.945Z,4.15
2018-05-09T02:29:02.131Z,3.85
2018-05-09T02:31:34.152Z,4.33
2018-05-09T02:34:02.555Z,4.62
2018-05-09T02:36:30.947Z,3.80
2018-05-09T02:39:18.738Z,3.60
2018-05-09T02:41:47.934Z,3.90
2018-05-09T02:44:16.355Z,4.37
2018-05-09T02:46:46.270Z,3.90
2018-05-09T02:49:15.657Z,3.92
2018-05-09T02:51:44.124Z,4.40
2018-05-09T02:54:12.523Z,3.90
2018-05-09T02:56:40.951Z,3.83
2018-05-09T02:59:10.093Z,4.35
2018-05-09T03:01:39.516Z,4.62
2018-05-09T03:04:07.944Z,4.25
2018-05-09T03:06:36.651Z,3.85
2018-05-09T03:09:05.493Z,5.53
2018-05-09T03:11:34.298Z,4.28
2018-05-09T03:14:02.751Z,4.43
2018-05-09T03:16:31.182Z,4.78
2018-05-09T03:19:00.349Z,5.10
2018-05-09T03:21:28.766Z,4.90
2018-05-09T03:23:58.026Z,4.30
2018-05-09T03:26:27.203Z,5.10
2018-05-09T03:28:57.184Z,4.53
2018-05-09T03:31:26.353Z,4.90
2018-05-09T03:33:55.525Z,4.45
2018-05-09T03:36:24.001Z,5.15
2018-05-09T03:38:52.435Z,5.15
2018-05-09T03:41:21.342Z,4.68
2018-05-09T03:43:49.866Z,4.93
2018-05-09T03:46:18.292Z,5.22
2018-05-09T03:48:46.758Z,4.75
2018-05-09T03:51:15.223Z,4.45
2018-05-09T03:53:43.603Z,4.53
2018-05-09T03:56:12.944Z,4.47
2018-05-09T03:58:44.896Z,7.00
2018-05-09T04:01:14.239Z,5.40
2018-05-09T04:04:01.424Z,5.45
2018-05-09T04:06:47.546Z,5.60
2018-05-09T04:09:35.392Z,5.90
2018-05-09T04:12:03.748Z,5.40
2018-05-09T04:14:34.051Z,5.30
2018-05-09T04:17:02.466Z,4.93
2018-05-09T04:19:31.660Z,4.82
2018-05-09T04:22:01.119Z,4.93
2018-05-09T04:24:30.212Z,5.60
2018-05-09T04:26:58.671Z,5.22
2018-05-09T04:29:28.924Z,5.57
2018-05-09T04:31:57.406Z,5.20
2018-05-09T04:34:25.827Z,4.95
2018-05-09T04:36:54.458Z,5.90
2018-05-09T04:39:24.309Z,4.97
2018-05-09T04:41:52.766Z,5.53
2018-05-09T04:44:21.944Z,5.13
2018-05-09T04:46:51.152Z,5.22
2018-05-09T04:49:20.325Z,5.27
2018-05-09T04:51:48.713Z,5.63
2018-05-09T04:54:17.141Z,5.37
2018-05-09T04:56:45.533Z,4.67
2018-05-09T04:59:14.050Z,4.83
2018-05-09T05:01:42.542Z,4.83
2018-05-09T05:04:12.539Z,4.83
2018-05-09T05:06:40.941Z,5.10
2018-05-09T05:09:12.211Z,6.07
2018-05-09T05:11:40.746Z,5.70
2018-05-09T05:14:13.651Z,4.73
2018-05-09T05:16:43.021Z,5.10
2018-05-09T05:19:12.620Z,6.00
2018-05-09T05:21:42.729Z,5.60
2018-05-09T05:24:12.988Z,5.23
2018-05-09T05:26:44.458Z,6.17
2018-05-09T05:29:14.742Z,5.20
2018-05-09T05:31:44.079Z,5.33
2018-05-09T05:34:13.177Z,5.20
2018-05-09T05:36:43.115Z,5.53
2018-05-09T05:39:13.537Z,5.70
2018-05-09T05:41:43.498Z,5.87
2018-05-09T05:44:12.866Z,6.20
2018-05-09T05:46:43.766Z,5.83
2018-05-09T05:49:13.988Z,5.20
2018-05-09T05:51:43.883Z,4.90
2018-05-09T05:54:12.575Z,5.13
2018-05-09T05:56:42.541Z,4.63
2018-05-09T05:59:11.021Z,4.30
2018-05-09T06:01:39.935Z,4.77
2018-05-09T06:04:09.610Z,5.20
2018-05-09T06:06:39.957Z,5.23
2018-05-09T06:09:12.580Z,5.03
2018-05-09T06:11:42.550Z,4.27
2018-05-09T06:14:11.866Z,4.90
2018-05-09T06:16:40.246Z,4.63
2018-05-09T06:19:08.662Z,4.40
2018-05-09T06:21:37.287Z,4.60
2018-05-09T06:24:05.898Z,4.80
2018-05-09T06:26:36.339Z,4.20
2018-05-09T06:29:04.726Z,5.00
2018-05-09T06:31:33.162Z,4.90
2018-05-09T06:34:05.388Z,4.73
2018-05-09T06:36:33.877Z,4.83
2018-05-09T06:39:02.273Z,4.30
2018-05-09T06:41:31.078Z,4.83
2018-05-09T06:44:00.189Z,4.80
2018-05-09T06:46:28.580Z,4.20
2018-05-09T06:48:57.025Z,4.67
2018-05-09T06:51:25.432Z,4.50
2018-05-09T06:53:53.832Z,4.47
2018-05-09T06:56:22.411Z,4.43
2018-05-09T06:58:52.679Z,4.90
2018-05-09T07:01:21.137Z,4.53
2018-05-09T07:04:00.700Z,4.13
2018-05-09T07:06:29.279Z,4.07
2018-05-09T07:08:58.443Z,4.40
2018-05-09T07:11:27.903Z,3.97
2018-05-09T07:13:56.302Z,3.63
2018-05-09T07:16:25.867Z,3.87
2018-05-09T07:18:54.388Z,4.40
2018-05-09T07:21:22.797Z,4.27
2018-05-09T07:23:51.186Z,3.80
2018-05-09T07:26:19.593Z,5.60
2018-05-09T07:28:48.118Z,3.83
2018-05-09T07:31:16.586Z,5.13
2018-05-09T07:33:45.768Z,3.73
2018-05-09T07:36:14.186Z,4.07
2018-05-09T07:38:42.584Z,3.97
2018-05-09T07:41:11.013Z,3.40
2018-05-09T07:43:39.410Z,4.20
2018-05-09T07:46:07.811Z,4.63
2018-05-09T07:48:37.154Z,4.27
2018-05-09T07:51:05.627Z,4.00
2018-05-09T07:53:34.047Z,4.70
2018-05-09T07:56:02.455Z,3.80
2018-05-09T07:58:31.632Z,4.77
2018-05-09T08:01:00.036Z,4.63
2018-05-09T08:03:29.218Z,4.37
2018-05-09T08:05:57.674Z,4.60
2018-05-09T08:08:26.211Z,4.90
2018-05-09T08:10:55.384Z,4.50
2018-05-09T08:13:23.849Z,4.40
2018-05-09T08:15:52.786Z,4.40
2018-05-09T08:18:21.958Z,4.37
2018-05-09T08:20:50.666Z,4.37
2018-05-09T08:23:19.106Z,3.87
2018-05-09T08:25:47.508Z,4.10
2018-05-09T08:28:15.917Z,4.13
2018-05-09T08:30:44.322Z,4.30
2018-05-09T08:33:13.473Z,3.90
2018-05-09T08:35:41.967Z,3.97
2018-05-09T08:38:11.128Z,4.17
2018-05-09T08:40:39.621Z,4.50
2018-05-09T08:43:08.036Z,4.27
2018-05-09T08:45:36.457Z,4.13
2018-05-09T08:48:05.647Z,4.20
2018-05-09T08:50:34.082Z,4.37
2018-05-09T08:53:02.565Z,6.23
2018-05-09T08:55:30.999Z,4.00
2018-05-09T08:57:59.354Z,5.13
2018-05-09T09:00:28.650Z,3.60
2018-05-09T09:02:57.032Z,3.90
2018-05-09T09:05:25.444Z,4.27
2018-05-09T09:07:53.946Z,5.40
2018-05-09T09:10:22.343Z,4.63
2018-05-09T09:12:51.495Z,4.50
2018-05-09T09:15:19.904Z,4.30
2018-05-09T09:17:48.278Z,3.77
2018-05-09T09:20:16.673Z,3.57
2018-05-09T09:22:45.046Z,4.30
2018-05-09T09:25:14.942Z,4.47
2018-05-09T09:27:43.357Z,4.17
2018-05-09T09:30:11.739Z,3.63
2018-05-09T09:32:40.199Z,3.90
2018-05-09T09:35:08.572Z,4.93
2018-05-09T09:37:36.982Z,3.80
2018-05-09T09:40:05.387Z,4.10
2018-05-09T09:42:33.882Z,4.40
2018-05-09T09:45:03.059Z,5.00
2018-05-09T09:47:31.440Z,3.83
2018-05-09T09:49:59.826Z,4.40
2018-05-09T09:52:28.259Z,4.90
2018-05-09T09:54:56.684Z,5.10
2018-05-09T09:57:25.083Z,4.97
2018-05-09T09:59:53.455Z,4.60
2018-05-09T10:02:21.855Z,4.17
2018-05-09T10:04:50.275Z,4.20
2018-05-09T10:07:18.694Z,3.90
2018-05-09T10:09:47.097Z,4.23
2018-05-09T10:12:15.496Z,3.90
2018-05-09T10:14:44.702Z,4.67
2018-05-09T10:17:13.884Z,4.50
2018-05-09T10:19:42.403Z,4.30
2018-05-09T10:22:11.547Z,4.10
2018-05-09T10:24:40.730Z,3.90
2018-05-09T10:27:09.157Z,4.43
2018-05-09T10:29:37.572Z,4.03
2018-05-09T10:32:06.068Z,4.73
2018-05-09T10:34:34.462Z,4.77
2018-05-09T10:37:02.889Z,4.33
2018-05-09T10:39:31.268Z,4.07
2018-05-09T10:41:59.757Z,3.83
2018-05-09T10:44:28.146Z,3.70
2018-05-09T10:46:56.593Z,4.03
2018-05-09T10:49:24.970Z,4.07
2018-05-09T10:51:53.374Z,4.73
2018-05-09T10:54:22.506Z,3.30
2018-05-09T10:56:50.882Z,3.83
2018-05-09T10:59:19.282Z,4.27
2018-05-09T11:01:47.695Z,4.10
2018-05-09T11:04:16.127Z,3.43
2018-05-09T11:06:44.527Z,3.60
2018-05-09T11:09:13.682Z,3.80
2018-05-09T11:11:42.083Z,4.50
2018-05-09T11:14:10.486Z,3.50
2018-05-09T11:16:38.878Z,3.40
2018-05-09T11:19:08.035Z,3.63
2018-05-09T11:21:36.478Z,3.00
2018-05-09T11:24:05.696Z,3.67
2018-05-09T11:26:34.139Z,3.50
2018-05-09T11:29:02.533Z,3.87
2018-05-09T11:31:30.933Z,3.53
2018-05-09T11:34:00.883Z,4.10
2018-05-09T11:36:29.255Z,3.50
2018-05-09T11:38:57.634Z,3.97
2018-05-09T11:41:26.038Z,3.87
2018-05-09T11:43:54.406Z,3.47
2018-05-09T11:46:22.814Z,4.40
2018-05-09T11:48:51.188Z,3.87
2018-05-09T11:51:19.557Z,4.07
2018-05-09T11:53:47.977Z,3.77
2018-05-09T11:56:16.362Z,3.50
2018-05-09T11:58:44.762Z,3.77
2018-05-09T12:01:13.134Z,4.03
2018-05-09T12:03:41.525Z,3.70
2018-05-09T12:06:09.958Z,4.13
2018-05-09T12:08:38.334Z,4.00
2018-05-09T12:11:06.718Z,3.10
2018-05-09T12:13:35.085Z,3.30
2018-05-09T12:16:04.302Z,3.10
2018-05-09T12:18:32.679Z,3.70
2018-05-09T12:21:01.129Z,4.40
2018-05-09T12:23:29.511Z,3.47
2018-05-09T12:25:57.894Z,3.20
2018-05-09T12:28:26.322Z,3.67
2018-05-09T12:30:54.690Z,3.17
2018-05-09T12:33:23.080Z,2.77
2018-05-09T12:35:51.458Z,3.77
2018-05-09T12:38:19.882Z,3.50
2018-05-09T12:40:48.282Z,3.60
2018-05-09T12:43:16.723Z,3.47
2018-05-09T12:45:45.098Z,3.93
2018-05-09T12:48:13.581Z,3.57
2018-05-09T12:50:42.194Z,3.63
2018-05-09T12:53:10.610Z,3.43
2018-05-09T12:55:38.978Z,3.23
2018-05-09T12:58:07.349Z,3.30
2018-05-09T13:00:35.730Z,3.70
2018-05-09T13:03:04.093Z,3.90
2018-05-09T13:05:32.486Z,3.97
2018-05-09T13:08:00.873Z,3.77
2018-05-09T13:10:29.241Z,4.20
2018-05-09T13:12:57.666Z,4.17
2018-05-09T13:15:26.846Z,3.90
2018-05-09T13:17:55.241Z,3.70
2018-05-09T13:20:23.674Z,3.73
2018-05-09T13:22:52.841Z,3.93
2018-05-09T13:25:21.205Z,7.47
2018-05-09T13:27:49.590Z,4.23
2018-05-09T13:30:17.966Z,3.93
2018-05-09T13:32:46.361Z,4.40
2018-05-09T13:35:14.767Z,3.93
2018-05-09T13:37:43.141Z,4.10
2018-05-09T13:40:11.535Z,3.70
2018-05-09T13:42:39.899Z,3.90
2018-05-09T13:45:08.390Z,3.63
2018-05-09T13:47:36.787Z,3.90
2018-05-09T13:50:05.206Z,3.83
2018-05-09T13:52:33.700Z,3.40
2018-05-09T13:55:02.103Z,4.40
2018-05-09T13:57:30.621Z,3.83
2018-05-09T13:59:58.994Z,4.20
2018-05-09T14:02:27.367Z,3.63
2018-05-09T14:04:55.746Z,3.90
2018-05-09T14:07:24.122Z,3.80
2018-05-09T14:09:52.662Z,4.20
2018-05-09T14:12:20.983Z,3.67
2018-05-09T14:14:49.383Z,4.20
2018-05-09T14:17:17.798Z,4.07
2018-05-09T14:19:46.171Z,3.93
2018-05-09T14:22:14.529Z,3.77
2018-05-09T14:24:42.925Z,3.90
2018-05-09T14:27:11.355Z,3.67
2018-05-09T14:29:39.697Z,4.10
2018-05-09T14:32:08.099Z,4.00
2018-05-09T14:34:36.538Z,3.83
2018-05-09T14:37:04.929Z,4.43
2018-05-09T14:39:33.317Z,4.43
2018-05-09T14:42:01.707Z,4.33
2018-05-09T14:44:30.084Z,4.10
2018-05-09T14:46:58.487Z,4.17
2018-05-09T14:49:26.884Z,4.07
2018-05-09T14:51:55.250Z,4.20
2018-05-09T14:54:23.648Z,4.27
2018-05-09T14:56:52.033Z,4.40
2018-05-09T14:59:20.405Z,4.33
2018-05-09T15:01:48.799Z,5.17
2018-05-09T15:04:17.189Z,4.20
2018-05-09T15:06:46.371Z,4.00
2018-05-09T15:09:14.750Z,4.93
2018-05-09T15:11:43.217Z,4.23
2018-05-09T15:14:12.395Z,4.33
2018-05-09T15:16:40.781Z,4.10
2018-05-09T15:19:09.154Z,4.03
2018-05-09T15:21:37.517Z,4.90
2018-05-09T15:24:06.684Z,12.60
2018-05-09T15:26:35.067Z,5.33
2018-05-09T15:29:03.448Z,4.60
2018-05-09T15:31:31.865Z,5.13
2018-05-09T15:34:01.011Z,4.80
2018-05-09T15:36:29.421Z,4.33
2018-05-09T15:38:57.882Z,4.70
2018-05-09T15:41:26.161Z,3.97
2018-05-09T15:43:54.541Z,12.60
2018-05-09T15:46:22.964Z,30.43
2018-05-09T15:48:51.359Z,4.83
2018-05-09T15:51:20.495Z,5.70
2018-05-09T15:53:48.876Z,22.50
2018-05-09T15:56:17.291Z,55.20
2018-05-09T15:58:45.701Z,10.70
2018-05-09T16:01:14.072Z,13.13
2018-05-09T16:03:42.471Z,8.80
2018-05-09T16:06:10.837Z,8.50
2018-05-09T16:08:39.220Z,37.73
2018-05-09T16:11:07.602Z,4.73
2018-05-09T16:13:35.972Z,4.80
2018-05-09T16:16:04.402Z,4.30
2018-05-09T16:18:33.535Z,4.30
2018-05-09T16:21:02.825Z,4.83
2018-05-09T16:23:31.237Z,4.40
2018-05-09T16:25:59.641Z,4.50
2018-05-09T16:28:28.057Z,10.07
2018-05-09T16:30:56.466Z,8.43
2018-05-09T16:33:24.900Z,12.00
2018-05-09T16:35:53.257Z,9.20
2018-05-09T16:38:22.446Z,8.63
2018-05-09T16:40:50.817Z,5.17
2018-05-09T16:43:19.193Z,7.30
2018-05-09T16:45:47.578Z,5.83
2018-05-09T16:48:15.969Z,34.53
2018-05-09T16:50:44.354Z,4.37
2018-05-09T16:53:12.836Z,5.90
2018-05-09T16:55:41.160Z,6.20
2018-05-09T16:58:09.561Z,5.57
2018-05-09T17:00:37.952Z,4.70
2018-05-09T17:03:07.109Z,4.80
2018-05-09T17:05:35.598Z,11.20
2018-05-09T17:08:03.918Z,4.80
2018-05-09T17:10:32.332Z,4.40
2018-05-09T17:13:00.887Z,4.13
2018-05-09T17:15:29.277Z,4.50
2018-05-09T17:17:58.422Z,4.17
2018-05-09T17:20:26.825Z,4.00
2018-05-09T17:22:55.231Z,4.40
2018-05-09T17:25:23.650Z,4.70
2018-05-09T17:27:52.017Z,4.70
2018-05-09T17:32:52.474Z,4.20
2018-05-09T17:35:21.630Z,5.40
2018-05-09T17:37:50.067Z,4.70
2018-05-09T17:40:18.625Z,4.60
2018-05-09T17:42:47.903Z,5.13
2018-05-09T17:45:16.269Z,4.00
2018-05-09T17:47:44.685Z,5.20
2018-05-09T17:50:13.189Z,5.13
2018-05-09T17:52:41.563Z,5.07
2018-05-09T17:55:09.953Z,4.90
2018-05-09T17:57:39.089Z,4.60
2018-05-09T18:00:07.576Z,5.13
2018-05-09T18:02:35.951Z,4.83
2018-05-09T18:05:04.399Z,4.60
2018-05-09T18:07:32.774Z,4.87
2018-05-09T18:10:01.181Z,5.67
2018-05-09T18:12:30.606Z,5.60
2018-05-09T18:14:58.925Z,5.10
2018-05-09T18:17:27.314Z,5.00
2018-05-09T18:19:55.706Z,5.83
2018-05-09T18:22:24.169Z,6.00
2018-05-09T18:24:52.620Z,5.07
2018-05-09T18:27:21.021Z,5.60
2018-05-09T18:29:49.387Z,5.73
2018-05-09T18:32:17.788Z,6.80
2018-05-09T18:34:46.247Z,7.67
2018-05-09T18:37:15.382Z,5.77
2018-05-09T18:39:43.782Z,6.67
2018-05-09T18:42:12.181Z,5.23
2018-05-09T18:44:40.569Z,5.40
2018-05-09T18:47:08.952Z,6.03
2018-05-09T18:49:37.367Z,5.80
2018-05-09T18:52:06.525Z,6.70
2018-05-09T18:54:34.917Z,6.03
2018-05-09T18:57:03.297Z,6.43
2018-05-09T18:59:31.775Z,5.80
2018-05-09T19:02:00.088Z,6.27
2018-05-09T19:04:29.262Z,6.60
2018-05-09T19:06:57.667Z,7.67
2018-05-09T19:09:26.845Z,7.00
2018-05-09T19:11:55.340Z,5.80
2018-05-09T19:14:23.743Z,5.50
2018-05-09T19:16:52.906Z,5.80
2018-05-09T19:19:21.283Z,5.30
2018-05-09T19:21:49.660Z,5.30
2018-05-09T19:24:18.092Z,5.77
2018-05-09T19:26:47.254Z,5.73
2018-05-09T19:29:15.654Z,6.30
2018-05-09T19:31:44.834Z,6.43
2018-05-09T19:34:13.256Z,7.03
2018-05-09T19:36:41.669Z,7.43
2018-05-09T19:39:10.110Z,8.70
2018-05-09T19:41:38.547Z,7.00
2018-05-09T19:44:06.880Z,7.87
2018-05-09T19:46:35.255Z,7.97
2018-05-09T19:49:03.652Z,9.43
2018-05-09T19:51:32.958Z,8.43
2018-05-09T19:54:01.376Z,8.50
2018-05-09T19:56:29.860Z,8.23
2018-05-09T19:58:58.253Z,7.30
2018-05-09T20:01:26.667Z,7.63
2018-05-09T20:03:55.061Z,8.23
2018-05-09T20:06:23.498Z,8.63
2018-05-09T20:08:51.899Z,9.30
2018-05-09T20:11:20.294Z,10.50
2018-05-09T20:13:48.798Z,8.47
2018-05-09T20:16:17.139Z,8.10
2018-05-09T20:18:45.537Z,8.80
2018-05-09T20:21:13.984Z,8.20
2018-05-09T20:23:43.186Z,8.33
2018-05-09T20:26:11.562Z,8.43
2018-05-09T20:28:46.125Z,8.83
2018-05-09T20:31:37.985Z,7.87
2018-05-09T20:34:07.042Z,9.33
2018-05-09T20:36:35.523Z,15.40
2018-05-09T20:39:03.900Z,9.63
2018-05-09T20:41:32.325Z,13.90
2018-05-09T20:44:00.714Z,12.10
2018-05-09T20:46:29.127Z,9.33
2018-05-09T20:48:58.277Z,10.10
2018-05-09T20:51:44.370Z,9.10
2018-05-09T20:54:12.782Z,8.83
2018-05-09T20:56:41.147Z,9.07
2018-05-09T20:59:09.542Z,12.57
2018-05-09T21:01:49.541Z,10.57
2018-05-09T21:04:17.938Z,13.03
2018-05-09T21:06:46.318Z,13.60
2018-05-09T21:09:14.737Z,15.53
2018-05-09T21:14:48.453Z,25.00
2018-05-09T21:17:16.852Z,23.07
2018-05-09T21:19:46.049Z,22.00
2018-05-09T21:22:15.200Z,23.83
2018-05-09T21:24:43.607Z,24.43
2018-05-09T21:27:12.161Z,26.90
2018-05-09T21:29:40.503Z,24.37
2018-05-09T21:32:09.677Z,25.57
2018-05-09T21:34:38.054Z,25.40
2018-05-09T21:37:06.432Z,26.80
2018-05-09T21:39:34.802Z,25.60
2018-05-09T21:42:03.208Z,25.30
2018-05-09T21:44:31.630Z,24.57
2018-05-09T21:47:00.785Z,25.23
2018-05-09T21:49:29.203Z,24.33
2018-05-09T21:51:58.349Z,23.73
2018-05-09T21:54:26.769Z,23.90
2018-05-09T21:56:55.153Z,23.23
2018-05-09T21:59:23.544Z,26.83
2018-05-09T22:01:51.943Z,25.80
2018-05-09T22:04:21.124Z,25.73
2018-05-09T22:06:49.513Z,24.73
2018-05-09T22:09:18.778Z,27.03
2018-05-09T22:11:47.157Z,29.93
2018-05-09T22:14:15.574Z,28.40
2018-05-09T22:16:43.987Z,27.87
2018-05-09T22:19:13.162Z,29.63
2018-05-09T22:21:41.576Z,26.67
2018-05-09T22:24:10.051Z,28.00
2018-05-09T22:26:39.223Z,25.60
2018-05-09T22:29:07.628Z,26.80
2018-05-09T22:31:36.055Z,27.87
2018-05-09T22:34:04.520Z,25.53
2018-05-09T22:36:32.931Z,26.60
2018-05-09T22:39:01.334Z,27.30
2018-05-09T22:41:30.502Z,27.83
2018-05-09T22:43:58.977Z,27.83
2018-05-09T22:46:27.387Z,28.50
2018-05-09T22:48:55.816Z,25.03
2018-05-09T22:51:24.201Z,27.40
2018-05-09T22:53:53.349Z,26.30
2018-05-09T22:56:21.731Z,26.30
2018-05-09T22:58:50.147Z,25.87
2018-05-09T23:01:18.532Z,28.07
2018-05-09T23:03:46.958Z,26.40
2018-05-09T23:06:15.347Z,26.77
2018-05-09T23:08:43.778Z,25.20
2018-05-09T23:11:12.179Z,27.07
2018-05-09T23:13:41.019Z,26.27
2018-05-09T23:16:09.418Z,26.40
2018-05-09T23:18:37.810Z,28.80
2018-05-09T23:21:06.366Z,26.90
2018-05-09T23:23:34.758Z,26.97
2018-05-09T23:26:03.183Z,25.67
2018-05-09T23:28:31.604Z,27.77
2018-05-09T23:31:00.023Z,25.47
2018-05-09T23:33:28.435Z,27.27
2018-05-09T23:35:56.834Z,27.03
2018-05-09T23:38:25.994Z,28.07
2018-05-09T23:40:54.399Z,28.90
2018-05-09T23:43:22.822Z,28.40
2018-05-09T23:45:51.197Z,30.10
2018-05-09T23:48:20.359Z,29.23
2018-05-09T23:50:49.518Z,29.20
2018-05-09T23:53:17.937Z,32.60
2018-05-09T23:55:46.447Z,29.77
2018-05-09T23:58:14.727Z,27.47
